Time;durP1;ratioP1;P1;durP2;ratioP2;P2;SDS_P1;SDS_P2;PMS_P1;PMS_P2;Temp;Humidity;BMP_temperature;BMP_pressure;BME280_temperature;BME280_humidity;BME280_pressure;Samples;Min_cycle;Max_cycle;Signal;HPM_P1;HPM_P2
2023/12/26 00:02:41;;;;;;;5.97;2.58;;;;;;;;;;8265438;28;20046;-89
2023/12/26 00:06:44;;;;;;;4.43;2.83;;;;;;;;;;8265327;28;20050;-89
2023/12/26 00:10:49;;;;;;;4.53;2.38;;;;;;;;;;8265304;28;20403;-89
2023/12/26 00:14:52;;;;;;;4.18;2.40;;;;;;;;;;8265210;28;20074;-88
2023/12/26 00:18:57;;;;;;;6.00;2.88;;;;;;;;;;8264815;28;20038;-88
2023/12/26 00:23:00;;;;;;;5.40;2.50;;;;;;;;;;8249353;28;20061;-87
2023/12/26 00:32:05;;;;;;;6.00;2.63;;;;;;;;;;8261480;28;20057;-91
2023/12/26 00:36:14;;;;;;;3.42;2.42;;;;;;;;;;8271356;28;20070;-90
2023/12/26 00:40:39;;;;;;;5.47;2.42;;;;;;;;;;8268030;28;20059;-91
2023/12/26 00:50:26;;;;;;;5.75;2.70;;;;;;;;;;8256354;28;20653;-88
2023/12/26 00:54:29;;;;;;;4.35;2.40;;;;;;;;;;8264768;28;20112;-89
2023/12/26 00:58:32;;;;;;;7.93;3.50;;;;;;;;;;8253058;28;20084;-91
2023/12/26 01:02:35;;;;;;;4.90;2.50;;;;;;;;;;8253431;28;20054;-88
2023/12/26 01:06:39;;;;;;;6.05;2.75;;;;;;;;;;8254586;28;20105;-89
2023/12/26 01:10:43;;;;;;;5.88;2.95;;;;;;;;;;8271263;28;20422;-89
2023/12/26 01:14:46;;;;;;;6.05;2.50;;;;;;;;;;8253687;28;20181;-89
2023/12/26 01:18:49;;;;;;;5.18;2.50;;;;;;;;;;8278308;28;20137;-90
2023/12/26 01:22:54;;;;;;;4.03;2.50;;;;;;;;;;8252956;28;20097;-92
2023/12/26 01:26:57;;;;;;;5.00;2.63;;;;;;;;;;8270951;28;20394;-89
2023/12/26 01:31:00;;;;;;;8.05;2.85;;;;;;;;;;8269950;28;20458;-89
2023/12/26 01:55:00;;;;;;;3.53;2.50;;;;;;;;;;8267851;28;20073;-92
2023/12/26 01:59:12;;;;;;;7.60;2.80;;;;;;;;;;8268754;28;20517;-91
2023/12/26 02:03:35;;;;;;;4.65;2.25;;;;;;;;;;8282669;28;20065;-89
2023/12/26 02:07:38;;;;;;;5.43;2.50;;;;;;;;;;8268653;28;20074;-91
2023/12/26 02:11:42;;;;;;;5.22;2.13;;;;;;;;;;8252154;28;20046;-90
2023/12/26 02:15:47;;;;;;;3.67;2.40;;;;;;;;;;8254475;28;20050;-91
2023/12/26 02:19:54;;;;;;;4.53;2.20;;;;;;;;;;8251776;28;20081;-89
2023/12/26 02:24:00;;;;;;;5.45;2.38;;;;;;;;;;8235932;28;20057;-89
2023/12/26 02:28:06;;;;;;;4.35;2.10;;;;;;;;;;8253891;28;20409;-89
2023/12/26 02:32:10;;;;;;;5.28;2.55;;;;;;;;;;8268028;28;20123;-91
2023/12/26 02:36:13;;;;;;;3.15;1.77;;;;;;;;;;8251593;28;20062;-88
2023/12/26 02:40:18;;;;;;;3.42;1.95;;;;;;;;;;8249539;28;20502;-92
2023/12/26 02:44:21;;;;;;;2.97;1.80;;;;;;;;;;8218780;28;20055;-89
2023/12/26 02:48:27;;;;;;;3.55;2.00;;;;;;;;;;8218691;28;20141;-89
2023/12/26 02:52:30;;;;;;;4.30;2.03;;;;;;;;;;8242776;28;20050;-89
2023/12/26 02:56:38;;;;;;;2.97;1.85;;;;;;;;;;8249473;28;20046;-92
2023/12/26 03:00:41;;;;;;;3.70;1.65;;;;;;;;;;8250149;28;20054;-89
2023/12/26 03:04:44;;;;;;;3.78;2.15;;;;;;;;;;8250400;28;20490;-89
2023/12/26 03:08:47;;;;;;;4.72;2.13;;;;;;;;;;8250188;28;20050;-89
2023/12/26 03:12:54;;;;;;;4.55;2.20;;;;;;;;;;8250264;28;20049;-89
2023/12/26 03:16:58;;;;;;;2.70;1.75;;;;;;;;;;8253264;28;20049;-87
2023/12/26 03:21:01;;;;;;;3.00;1.90;;;;;;;;;;8277618;28;20058;-87
2023/12/26 03:25:05;;;;;;;6.85;2.30;;;;;;;;;;8278046;28;20042;-91
2023/12/26 03:29:09;;;;;;;5.28;2.50;;;;;;;;;;8279528;28;20081;-90
2023/12/26 03:33:12;;;;;;;4.30;2.20;;;;;;;;;;8265811;28;20038;-90
2023/12/26 03:37:15;;;;;;;3.30;1.88;;;;;;;;;;8274676;28;20057;-89
2023/12/26 03:41:18;;;;;;;3.85;2.17;;;;;;;;;;8278206;28;20058;-89
2023/12/26 03:45:26;;;;;;;4.20;2.30;;;;;;;;;;8251850;28;20131;-89
2023/12/26 03:49:30;;;;;;;5.72;2.30;;;;;;;;;;8249280;28;20119;-89
2023/12/26 03:53:33;;;;;;;6.43;2.08;;;;;;;;;;8248715;28;20462;-90
2023/12/26 03:57:36;;;;;;;4.55;2.30;;;;;;;;;;8249633;28;20054;-89
2023/12/26 04:01:41;;;;;;;6.60;3.63;;;;;;;;;;8265925;28;20602;-88
2023/12/26 04:06:17;;;;;;;7.20;3.05;;;;;;;;;;8265018;28;20128;-89
2023/12/26 04:10:20;;;;;;;6.25;2.80;;;;;;;;;;8245898;28;20045;-89
2023/12/26 04:20:21;;;;;;;5.90;2.88;;;;;;;;;;8266776;28;20056;-89
2023/12/26 04:24:25;;;;;;;6.50;2.97;;;;;;;;;;8239576;28;20043;-89
2023/12/26 04:28:30;;;;;;;5.93;3.38;;;;;;;;;;8245735;28;20046;-90
2023/12/26 04:32:34;;;;;;;5.13;3.33;;;;;;;;;;8251132;28;20137;-89
2023/12/26 04:36:37;;;;;;;6.07;3.28;;;;;;;;;;8249165;28;20150;-89
2023/12/26 04:40:42;;;;;;;6.03;3.50;;;;;;;;;;8252953;28;20064;-91
2023/12/26 04:44:46;;;;;;;7.40;3.55;;;;;;;;;;8248026;28;20108;-87
2023/12/26 04:48:53;;;;;;;7.20;3.78;;;;;;;;;;8196858;29;20062;-89
2023/12/26 04:52:56;;;;;;;5.25;3.38;;;;;;;;;;8196462;29;20191;-89
2023/12/26 04:57:01;;;;;;;9.27;4.25;;;;;;;;;;8196793;29;20537;-91
2023/12/26 05:01:05;;;;;;;7.55;4.25;;;;;;;;;;8213403;28;20055;-90
2023/12/26 05:05:08;;;;;;;9.32;4.60;;;;;;;;;;8196857;28;20109;-87
2023/12/26 05:09:11;;;;;;;6.95;4.28;;;;;;;;;;8264934;28;20414;-90
2023/12/26 05:23:08;;;;;;;13.13;5.28;;;;;;;;;;8230308;28;20101;-90
2023/12/26 05:27:12;;;;;;;8.70;5.07;;;;;;;;;;8262312;28;20567;-93
2023/12/26 05:31:19;;;;;;;23.30;14.15;;;;;;;;;;8253161;28;20061;-88
2023/12/26 05:35:23;;;;;;;8.93;5.10;;;;;;;;;;8269639;28;20129;-91
2023/12/26 05:39:26;;;;;;;8.30;5.35;;;;;;;;;;8269507;28;20415;-90
2023/12/26 05:44:20;;;;;;;9.48;5.93;;;;;;;;;;8272611;28;20137;-90
2023/12/26 05:54:22;;;;;;;9.75;5.22;;;;;;;;;;8257449;28;20050;-91
2023/12/26 05:58:27;;;;;;;7.35;4.95;;;;;;;;;;8270604;28;20133;-92
2023/12/26 06:02:31;;;;;;;10.13;6.00;;;;;;;;;;8290154;28;20196;-91
2023/12/26 06:06:36;;;;;;;8.93;5.72;;;;;;;;;;8253730;28;20222;-90
2023/12/26 06:10:40;;;;;;;12.25;6.05;;;;;;;;;;8252443;28;20058;-91
2023/12/26 06:14:44;;;;;;;9.20;5.82;;;;;;;;;;9091677;23;20096;-90
2023/12/26 06:18:50;;;;;;;9.23;5.50;;;;;;;;;;8215999;28;20085;-91
2023/12/26 06:22:54;;;;;;;7.60;5.47;;;;;;;;;;8209496;28;20062;-90
2023/12/26 06:26:58;;;;;;;9.43;5.38;;;;;;;;;;8200560;28;20142;-88
2023/12/26 06:35:25;;;;;;;9.40;5.60;;;;;;;;;;8205950;29;20087;-88
2023/12/26 06:39:28;;;;;;;8.32;5.13;;;;;;;;;;8191145;28;20138;-90
2023/12/26 06:43:31;;;;;;;7.95;4.95;;;;;;;;;;8206466;28;20172;-90
2023/12/26 06:47:35;;;;;;;6.82;4.53;;;;;;;;;;8225916;28;20050;-92
2023/12/26 06:51:39;;;;;;;8.88;5.32;;;;;;;;;;8210615;28;20053;-89
2023/12/26 06:55:42;;;;;;;7.07;4.80;;;;;;;;;;8217503;28;20130;-91
2023/12/26 06:59:50;;;;;;;9.93;4.82;;;;;;;;;;8209849;28;20055;-90
2023/12/26 07:03:57;;;;;;;8.02;4.78;;;;;;;;;;8186850;29;20118;-90
2023/12/26 07:08:01;;;;;;;8.27;4.80;;;;;;;;;;8210393;28;20051;-90
2023/12/26 07:12:05;;;;;;;6.68;3.90;;;;;;;;;;8201603;28;20055;-92
2023/12/26 07:16:07;;;;;;;7.07;4.20;;;;;;;;;;8229529;28;20059;-88
2023/12/26 07:20:13;;;;;;;8.25;4.20;;;;;;;;;;8215645;28;20503;-91
2023/12/26 07:24:16;;;;;;;7.30;3.85;;;;;;;;;;8216632;28;20093;-91
2023/12/26 07:28:19;;;;;;;5.78;3.42;;;;;;;;;;8204594;28;20040;-88
2023/12/26 07:32:22;;;;;;;8.02;3.78;;;;;;;;;;8202581;29;20051;-91
2023/12/26 07:36:33;;;;;;;5.03;3.05;;;;;;;;;;8202451;28;20058;-90
2023/12/26 07:40:51;;;;;;;5.93;3.38;;;;;;;;;;8212607;28;20131;-91
2023/12/26 07:44:54;;;;;;;5.95;3.22;;;;;;;;;;8174872;29;20060;-92
2023/12/26 07:48:57;;;;;;;4.32;2.80;;;;;;;;;;8174613;29;20135;-92
2023/12/26 07:53:02;;;;;;;5.72;2.90;;;;;;;;;;8175283;29;20047;-91
2023/12/26 07:57:09;;;;;;;4.32;2.72;;;;;;;;;;8160523;29;20056;-91
2023/12/26 08:01:13;;;;;;;4.68;2.85;;;;;;;;;;8175229;29;20059;-90
2023/12/26 08:05:17;;;;;;;4.22;2.70;;;;;;;;;;8177540;29;20416;-91
2023/12/26 08:09:27;;;;;;;3.63;2.47;;;;;;;;;;8176573;29;20094;-91
2023/12/26 08:13:30;;;;;;;7.53;2.67;;;;;;;;;;8173705;29;20507;-92
2023/12/26 08:17:34;;;;;;;3.15;2.00;;;;;;;;;;8180283;29;20045;-93
2023/12/26 08:21:38;;;;;;;3.55;2.30;;;;;;;;;;8215278;28;20063;-90
2023/12/26 08:25:44;;;;;;;4.13;2.45;;;;;;;;;;8188316;29;20061;-89
2023/12/26 08:29:47;;;;;;;4.32;2.40;;;;;;;;;;8204080;29;20058;-92
2023/12/26 08:33:50;;;;;;;2.95;2.10;;;;;;;;;;8188484;29;20052;-93
2023/12/26 08:37:55;;;;;;;4.32;2.50;;;;;;;;;;8206418;29;20047;-92
2023/12/26 08:42:00;;;;;;;2.88;2.00;;;;;;;;;;8208291;29;20047;-92
2023/12/26 08:46:06;;;;;;;3.60;2.05;;;;;;;;;;8191905;29;20110;-91
2023/12/26 08:50:11;;;;;;;5.88;2.40;;;;;;;;;;8210818;29;20074;-92
2023/12/26 08:54:16;;;;;;;4.90;2.33;;;;;;;;;;8210821;28;20134;-91
2023/12/26 08:58:20;;;;;;;3.85;2.40;;;;;;;;;;8214883;29;20078;-91
2023/12/26 09:02:23;;;;;;;7.85;4.63;;;;;;;;;;8234077;28;20514;-91
2023/12/26 09:06:26;;;;;;;7.07;3.55;;;;;;;;;;8241358;28;20055;-90
2023/12/26 09:10:29;;;;;;;4.85;3.05;;;;;;;;;;8242502;28;20500;-91
2023/12/26 09:14:52;;;;;;;10.38;4.68;;;;;;;;;;8242922;28;20065;-87
2023/12/26 09:18:58;;;;;;;5.20;3.38;;;;;;;;;;8246041;28;20073;-90
2023/12/26 09:23:01;;;;;;;4.88;2.67;;;;;;;;;;8245216;28;20050;-91
2023/12/26 09:27:04;;;;;;;6.35;3.53;;;;;;;;;;8244230;28;20061;-91
2023/12/26 09:31:09;;;;;;;4.53;2.70;;;;;;;;;;8246742;28;20051;-92
2023/12/26 09:35:12;;;;;;;9.13;4.30;;;;;;;;;;8242977;28;20043;-91
2023/12/26 09:39:15;;;;;;;9.85;4.32;;;;;;;;;;8239731;28;20458;-90
2023/12/26 09:43:19;;;;;;;7.18;3.50;;;;;;;;;;8239331;28;20054;-89
2023/12/26 09:47:26;;;;;;;6.38;3.70;;;;;;;;;;8227512;28;20483;-87
2023/12/26 09:51:29;;;;;;;5.85;3.05;;;;;;;;;;8220308;28;20101;-88
2023/12/26 09:55:32;;;;;;;8.05;3.35;;;;;;;;;;8218023;28;20479;-89
2023/12/26 09:59:37;;;;;;;5.85;3.22;;;;;;;;;;8206225;28;20451;-87
2023/12/26 10:03:46;;;;;;;7.18;3.95;;;;;;;;;;8211027;28;20126;-90
2023/12/26 10:07:50;;;;;;;10.73;4.65;;;;;;;;;;8159435;29;20515;-89
2023/12/26 10:11:55;;;;;;;14.52;6.78;;;;;;;;;;8196282;28;20082;-91
2023/12/26 10:15:58;;;;;;;8.90;4.38;;;;;;;;;;8193127;28;20470;-86
2023/12/26 10:20:07;;;;;;;7.50;4.53;;;;;;;;;;8190385;29;20101;-90
2023/12/26 10:24:11;;;;;;;9.13;4.70;;;;;;;;;;8188385;29;20059;-89
2023/12/26 10:28:17;;;;;;;4.38;3.13;;;;;;;;;;8188658;29;20075;-91
2023/12/26 10:32:24;;;;;;;6.50;3.92;;;;;;;;;;8191152;29;20051;-90
2023/12/26 10:36:29;;;;;;;7.65;3.65;;;;;;;;;;8188562;29;20051;-89
2023/12/26 10:40:34;;;;;;;8.68;4.38;;;;;;;;;;8206562;29;20046;-89
2023/12/26 10:44:37;;;;;;;6.72;3.72;;;;;;;;;;8188302;29;20396;-90
2023/12/26 10:48:44;;;;;;;5.47;3.38;;;;;;;;;;8203258;29;20075;-88
2023/12/26 10:52:52;;;;;;;5.55;3.15;;;;;;;;;;8187069;29;20059;-88
2023/12/26 10:56:59;;;;;;;8.52;3.75;;;;;;;;;;8186402;29;20051;-86
2023/12/26 11:01:02;;;;;;;5.10;2.85;;;;;;;;;;8186392;29;20062;-90
2023/12/26 11:05:05;;;;;;;6.57;3.42;;;;;;;;;;8203013;29;20404;-90
2023/12/26 11:09:11;;;;;;;6.20;3.42;;;;;;;;;;8185847;29;20137;-87
2023/12/26 11:13:12;;;;;;;4.88;3.13;;;;;;;;;;8186089;29;20674;-87
2023/12/26 11:17:15;;;;;;;;;;;;;;;;;;8202925;28;20130;-91
2023/12/26 11:21:17;;;;;;;6.38;2.97;;;;;;;;;;8202088;29;20318;-88
2023/12/26 11:25:22;;;;;;;5.47;2.83;;;;;;;;;;8203642;29;20105;-89
2023/12/26 11:29:24;;;;;;;9.48;4.00;;;;;;;;;;8205008;29;20059;-91
2023/12/26 11:33:27;;;;;;;6.20;3.13;;;;;;;;;;8170560;29;20047;-89
2023/12/26 11:37:30;;;;;;;9.43;4.50;;;;;;;;;;8202600;29;20043;-90
2023/12/26 11:41:36;;;;;;;6.22;3.38;;;;;;;;;;8204630;29;20078;-90
2023/12/26 11:45:38;;;;;;;11.35;4.55;;;;;;;;;;8187422;29;20051;-91
2023/12/26 11:49:41;;;;;;;4.97;2.35;;;;;;;;;;8187023;29;20138;-89
2023/12/26 11:53:43;;;;;;;5.20;2.53;;;;;;;;;;8203291;28;20058;-96
2023/12/26 11:57:51;;;;;;;7.10;3.40;;;;;;;;;;8187582;29;20078;-87
2023/12/26 12:01:52;;;;;;;5.20;2.58;;;;;;;;;;8190141;29;20054;-93
2023/12/26 12:06:15;;;;;;;7.35;3.25;;;;;;;;;;8186910;29;20097;-89
2023/12/26 12:10:16;;;;;;;5.72;2.67;;;;;;;;;;8202114;29;20487;-91
2023/12/26 12:20:07;;;;;;;4.55;2.00;;;;;;;;;;8181230;29;20431;-91
2023/12/26 12:24:18;;;;;;;5.88;3.20;;;;;;;;;;8180862;29;20060;-92
2023/12/26 12:28:20;;;;;;;4.63;2.43;;;;;;;;;;8180498;28;20481;-90
2023/12/26 12:32:22;;;;;;;3.67;2.17;;;;;;;;;;8203476;29;20186;-92
2023/12/26 12:36:59;;;;;;;5.78;3.40;;;;;;;;;;8177220;29;20058;-92
2023/12/26 12:41:04;;;;;;;4.68;2.30;;;;;;;;;;8204257;29;20627;-87
2023/12/26 12:45:07;;;;;;;4.30;2.45;;;;;;;;;;8166981;29;20075;-88
2023/12/26 12:54:37;;;;;;;3.65;1.90;;;;;;;;;;8206813;29;20134;-90
2023/12/26 12:58:39;;;;;;;3.50;1.65;;;;;;;;;;8208698;28;20047;-87
2023/12/26 13:02:41;;;;;;;;;;;;;;;;;;8245593;28;20101;-89
2023/12/26 13:06:43;;;;;;;;;;;;;;;;;;8237151;28;20405;-90
2023/12/26 13:10:47;;;;;;;3.58;1.80;;;;;;;;;;8237065;28;20423;-90
2023/12/26 13:14:55;;;;;;;4.20;1.58;;;;;;;;;;8241996;28;20058;-91
2023/12/26 13:18:59;;;;;;;2.88;1.83;;;;;;;;;;8238379;28;20089;-88
2023/12/26 13:23:00;;;;;;;2.13;1.50;;;;;;;;;;8221932;28;20047;-87
2023/12/26 13:27:05;;;;;;;5.00;2.75;;;;;;;;;;8221555;28;20399;-91
2023/12/26 13:31:06;;;;;;;4.15;2.50;;;;;;;;;;8238279;28;20509;-87
2023/12/26 13:47:42;;;;;;;6.63;2.10;;;;;;;;;;9469906;23;20532;-87
2023/12/26 13:51:44;;;;;;;4.60;1.90;;;;;;;;;;8174337;29;20056;-89
2023/12/26 13:55:47;;;;;;;5.38;2.00;;;;;;;;;;8173082;29;20480;-88
2023/12/26 13:59:50;;;;;;;6.00;1.60;;;;;;;;;;8172753;29;20412;-90
2023/12/26 14:03:56;;;;;;;3.85;2.10;;;;;;;;;;8173158;29;20167;-90
2023/12/26 14:07:59;;;;;;;5.07;1.77;;;;;;;;;;8173712;29;20131;-89
2023/12/26 14:16:13;;;;;;;5.65;2.30;;;;;;;;;;9571598;23;20166;-89
2023/12/26 14:20:18;;;;;;;4.78;2.60;;;;;;;;;;8267945;28;20475;-90
2023/12/26 14:24:21;;;;;;;4.20;2.22;;;;;;;;;;8268438;28;20475;-91
2023/12/26 14:32:59;;;;;;;3.25;1.95;;;;;;;;;;8257528;28;20101;-88
2023/12/26 14:37:04;;;;;;;4.00;2.28;;;;;;;;;;8271898;28;20097;-88
2023/12/26 14:41:08;;;;;;;4.82;2.22;;;;;;;;;;8268610;28;20495;-88
2023/12/26 14:45:11;;;;;;;4.22;1.85;;;;;;;;;;8274330;28;20050;-89
2023/12/26 14:49:14;;;;;;;3.88;2.15;;;;;;;;;;8273037;28;20600;-90
2023/12/26 14:53:23;;;;;;;3.00;2.00;;;;;;;;;;8260151;28;20050;-89
2023/12/26 14:57:26;;;;;;;4.90;2.60;;;;;;;;;;8255928;28;20054;-90
2023/12/26 15:01:29;;;;;;;4.63;2.40;;;;;;;;;;8272403;28;20050;-91
2023/12/26 15:05:34;;;;;;;4.78;2.38;;;;;;;;;;8274113;28;20086;-91
2023/12/26 15:09:38;;;;;;;5.85;2.78;;;;;;;;;;8273161;28;20047;-91
2023/12/26 15:13:41;;;;;;;6.32;3.30;;;;;;;;;;8256650;28;20096;-91
2023/12/26 15:17:44;;;;;;;7.50;4.05;;;;;;;;;;8273491;28;20596;-91
2023/12/26 15:21:52;;;;;;;8.25;3.85;;;;;;;;;;8259986;28;20122;-91
2023/12/26 15:25:58;;;;;;;11.20;4.50;;;;;;;;;;8276769;28;20058;-91
2023/12/26 15:30:01;;;;;;;12.00;4.53;;;;;;;;;;8272844;28;20061;-91
2023/12/26 15:34:04;;;;;;;9.43;3.97;;;;;;;;;;8272556;28;20093;-90
2023/12/26 15:42:26;;;;;;;9.55;3.15;;;;;;;;;;8578704;23;20054;-92
2023/12/26 15:46:29;;;;;;;10.27;4.40;;;;;;;;;;8251512;28;20125;-91
2023/12/26 15:50:32;;;;;;;5.60;3.08;;;;;;;;;;8271341;28;20077;-91
2023/12/26 15:54:38;;;;;;;6.75;2.45;;;;;;;;;;8252620;28;20043;-91
2023/12/26 15:58:43;;;;;;;4.25;2.30;;;;;;;;;;8253611;28;20046;-90
2023/12/26 16:02:46;;;;;;;4.28;2.30;;;;;;;;;;8268698;28;20077;-91
2023/12/26 16:06:50;;;;;;;4.20;2.38;;;;;;;;;;8251578;28;20054;-91
2023/12/26 16:10:53;;;;;;;6.85;3.10;;;;;;;;;;8267748;28;20113;-90
2023/12/26 16:14:58;;;;;;;4.13;2.20;;;;;;;;;;8267170;28;20042;-89
2023/12/26 16:19:01;;;;;;;4.55;2.40;;;;;;;;;;8268050;28;20133;-90
2023/12/26 16:23:12;;;;;;;7.20;2.95;;;;;;;;;;8249634;28;20054;-90
2023/12/26 16:27:48;;;;;;;4.22;2.65;;;;;;;;;;8269013;28;20073;-90
2023/12/26 16:31:53;;;;;;;5.45;3.05;;;;;;;;;;8261481;28;20062;-90
2023/12/26 16:35:56;;;;;;;9.75;3.42;;;;;;;;;;8248089;28;20142;-90
2023/12/26 16:39:59;;;;;;;6.35;3.17;;;;;;;;;;8264507;28;20133;-89
2023/12/26 16:44:02;;;;;;;7.97;4.10;;;;;;;;;;8264589;28;20054;-90
2023/12/26 16:48:07;;;;;;;6.70;4.22;;;;;;;;;;8264507;28;20410;-89
2023/12/26 16:52:10;;;;;;;9.85;4.50;;;;;;;;;;8247316;28;20054;-90
2023/12/26 16:56:13;;;;;;;8.77;3.90;;;;;;;;;;8247574;28;20082;-90
2023/12/26 17:00:16;;;;;;;9.23;4.68;;;;;;;;;;8264052;28;20051;-91
2023/12/26 17:04:21;;;;;;;9.00;3.78;;;;;;;;;;8247968;28;20409;-88
2023/12/26 17:08:24;;;;;;;7.72;3.25;;;;;;;;;;8264750;28;20042;-88
2023/12/26 17:12:27;;;;;;;7.38;3.40;;;;;;;;;;8247948;28;20048;-89
2023/12/26 17:16:30;;;;;;;8.57;3.67;;;;;;;;;;8252949;28;20441;-88
2023/12/26 17:20:35;;;;;;;6.78;3.22;;;;;;;;;;8270402;28;20383;-88
2023/12/26 17:24:38;;;;;;;6.82;3.72;;;;;;;;;;8269764;28;20082;-90
2023/12/26 17:28:44;;;;;;;7.32;3.33;;;;;;;;;;8269442;28;20126;-88
2023/12/26 17:32:48;;;;;;;8.15;3.83;;;;;;;;;;8254141;28;20057;-89
2023/12/26 17:36:54;;;;;;;6.80;3.30;;;;;;;;;;8252525;28;20058;-90
2023/12/26 17:40:57;;;;;;;8.80;3.65;;;;;;;;;;8269577;28;20090;-89
2023/12/26 17:45:00;;;;;;;8.02;3.63;;;;;;;;;;8269332;28;20042;-90
2023/12/26 17:49:05;;;;;;;8.30;3.40;;;;;;;;;;8270479;28;20133;-90
2023/12/26 17:53:10;;;;;;;5.65;3.17;;;;;;;;;;8271181;28;20105;-89
2023/12/26 17:57:14;;;;;;;10.93;3.17;;;;;;;;;;8254941;28;20054;-90
2023/12/26 18:01:17;;;;;;;6.88;3.20;;;;;;;;;;8252671;28;20061;-89
2023/12/26 18:05:20;;;;;;;6.50;3.25;;;;;;;;;;8269169;28;20042;-90
2023/12/26 18:09:24;;;;;;;5.60;2.80;;;;;;;;;;8268979;28;20483;-88
2023/12/26 18:13:27;;;;;;;4.00;2.50;;;;;;;;;;8268695;28;20046;-91
2023/12/26 18:17:30;;;;;;;6.90;2.90;;;;;;;;;;8268338;28;20046;-89
2023/12/26 18:21:39;;;;;;;6.50;2.80;;;;;;;;;;8268645;28;20046;-90
2023/12/26 18:25:45;;;;;;;6.03;2.53;;;;;;;;;;8250579;28;20046;-87
2023/12/26 18:29:50;;;;;;;6.30;2.20;;;;;;;;;;8251527;28;20096;-87
2023/12/26 18:34:01;;;;;;;3.70;2.20;;;;;;;;;;8269173;28;20125;-87
2023/12/26 18:38:04;;;;;;;3.53;2.20;;;;;;;;;;8268683;28;20499;-89
2023/12/26 18:42:10;;;;;;;4.40;2.40;;;;;;;;;;8268013;28;20068;-88
2023/12/26 18:46:17;;;;;;;5.63;2.42;;;;;;;;;;8268676;28;20048;-88
2023/12/26 18:50:21;;;;;;;6.13;2.65;;;;;;;;;;8268803;28;20136;-89
2023/12/26 18:54:24;;;;;;;5.22;2.80;;;;;;;;;;8267798;28;20507;-89
2023/12/26 18:58:32;;;;;;;5.10;2.50;;;;;;;;;;8252458;28;20077;-89
2023/12/26 19:02:37;;;;;;;3.60;1.83;;;;;;;;;;8270043;28;20100;-89
2023/12/26 19:06:40;;;;;;;7.65;2.70;;;;;;;;;;8270043;28;20061;-88
2023/12/26 19:10:43;;;;;;;4.95;2.60;;;;;;;;;;8267772;28;20047;-90
2023/12/26 19:14:48;;;;;;;6.82;3.55;;;;;;;;;;8267344;28;20078;-88
2023/12/26 19:18:52;;;;;;;6.60;2.95;;;;;;;;;;8267273;28;20046;-89
2023/12/26 19:22:56;;;;;;;6.07;2.55;;;;;;;;;;8267045;28;20490;-90
2023/12/26 19:27:00;;;;;;;7.88;3.03;;;;;;;;;;8267648;28;20124;-86
2023/12/26 19:31:05;;;;;;;5.95;2.75;;;;;;;;;;8250710;28;20065;-91
2023/12/26 19:35:10;;;;;;;5.55;2.95;;;;;;;;;;8267534;28;20129;-90
2023/12/26 19:39:14;;;;;;;8.90;3.95;;;;;;;;;;8267101;28;20541;-90
2023/12/26 19:43:17;;;;;;;7.57;3.35;;;;;;;;;;8255209;28;20042;-90
2023/12/26 19:47:29;;;;;;;6.45;3.17;;;;;;;;;;8270036;28;20042;-90
2023/12/26 19:51:33;;;;;;;6.90;3.00;;;;;;;;;;8274103;28;20050;-89
2023/12/26 19:55:37;;;;;;;6.22;3.10;;;;;;;;;;8250370;28;20076;-87
2023/12/26 19:59:41;;;;;;;6.18;3.10;;;;;;;;;;8266054;28;20046;-87
2023/12/26 20:03:50;;;;;;;5.55;2.88;;;;;;;;;;8248634;28;20054;-88
2023/12/26 20:07:53;;;;;;;8.57;2.85;;;;;;;;;;8265111;28;20053;-89
2023/12/26 20:11:57;;;;;;;7.22;3.17;;;;;;;;;;8265126;28;20409;-88
2023/12/26 20:16:03;;;;;;;7.75;2.92;;;;;;;;;;8264921;28;20053;-91
2023/12/26 20:20:11;;;;;;;8.00;3.05;;;;;;;;;;8265088;28;20057;-88
2023/12/26 20:24:17;;;;;;;6.85;3.03;;;;;;;;;;8248153;28;20133;-88
2023/12/26 20:28:21;;;;;;;8.88;2.63;;;;;;;;;;8264894;28;20077;-88
2023/12/26 20:32:26;;;;;;;10.35;3.00;;;;;;;;;;8264607;28;20046;-89
2023/12/26 20:36:33;;;;;;;8.60;3.00;;;;;;;;;;8264543;28;20541;-89
2023/12/26 20:40:38;;;;;;;7.95;2.90;;;;;;;;;;8264472;28;20522;-90
2023/12/26 20:44:46;;;;;;;7.35;3.08;;;;;;;;;;8250018;28;20039;-89
2023/12/26 20:48:53;;;;;;;8.27;3.55;;;;;;;;;;8238837;28;20478;-88
2023/12/26 20:53:01;;;;;;;8.25;3.30;;;;;;;;;;8267612;28;20091;-89
2023/12/26 20:57:06;;;;;;;7.88;2.83;;;;;;;;;;8251861;28;20043;-91
2023/12/26 21:01:09;;;;;;;10.48;3.47;;;;;;;;;;8267819;28;20193;-87
2023/12/26 21:05:13;;;;;;;8.63;2.88;;;;;;;;;;8260681;28;20047;-88
2023/12/26 21:09:17;;;;;;;5.20;2.60;;;;;;;;;;8267040;28;20066;-88
2023/12/26 21:13:20;;;;;;;9.45;3.75;;;;;;;;;;8237695;28;20122;-87
2023/12/26 21:17:24;;;;;;;8.50;2.83;;;;;;;;;;8267051;28;20050;-89
2023/12/26 21:21:27;;;;;;;5.45;2.70;;;;;;;;;;8269311;28;20486;-88
2023/12/26 21:25:33;;;;;;;9.07;3.13;;;;;;;;;;8269716;28;20053;-87
2023/12/26 21:29:36;;;;;;;8.82;3.05;;;;;;;;;;8238610;28;20268;-88
2023/12/26 21:33:48;;;;;;;6.05;2.92;;;;;;;;;;8245370;28;20054;-89
2023/12/26 21:37:51;;;;;;;;;;;;;;;;;;8269945;28;20057;-88
2023/12/26 21:41:56;;;;;;;8.38;3.25;;;;;;;;;;8269287;28;19941;-88
2023/12/26 21:46:02;;;;;;;5.10;2.75;;;;;;;;;;8252521;28;20058;-88
2023/12/26 21:50:07;;;;;;;4.90;2.70;;;;;;;;;;8269033;28;20058;-87
2023/12/26 21:54:12;;;;;;;7.28;2.80;;;;;;;;;;8257265;28;20255;-87
2023/12/26 21:58:17;;;;;;;5.43;2.45;;;;;;;;;;8253451;28;20054;-88
2023/12/26 22:02:19;;;;;;;5.75;2.30;;;;;;;;;;8243196;28;20054;-88
2023/12/26 22:06:22;;;;;;;6.32;2.60;;;;;;;;;;8268419;28;20137;-87
2023/12/26 22:10:25;;;;;;;5.25;2.38;;;;;;;;;;8268416;28;20077;-88
2023/12/26 22:14:30;;;;;;;8.75;2.85;;;;;;;;;;8257965;28;20066;-87
2023/12/26 22:18:34;;;;;;;8.70;2.88;;;;;;;;;;8236282;28;20050;-86
2023/12/26 22:22:37;;;;;;;10.40;2.55;;;;;;;;;;8219014;28;20507;-87
2023/12/26 22:26:43;;;;;;;5.38;2.30;;;;;;;;;;8236091;28;20050;-87
2023/12/26 22:30:50;;;;;;;6.38;2.80;;;;;;;;;;8235663;28;20051;-87
2023/12/26 22:34:53;;;;;;;4.90;2.28;;;;;;;;;;8218149;28;20042;-86
2023/12/26 22:38:57;;;;;;;6.13;2.35;;;;;;;;;;8218247;28;20133;-87
2023/12/26 22:43:01;;;;;;;6.10;2.28;;;;;;;;;;8232735;28;20063;-87
2023/12/26 22:47:06;;;;;;;5.28;2.08;;;;;;;;;;8235038;28;20138;-87
2023/12/26 22:51:15;;;;;;;5.53;2.15;;;;;;;;;;8246158;28;20061;-87
2023/12/26 22:55:18;;;;;;;5.15;2.20;;;;;;;;;;8266740;28;20053;-88
2023/12/26 22:59:53;;;;;;;4.22;2.13;;;;;;;;;;8266858;28;20046;-87
2023/12/26 23:04:00;;;;;;;7.85;2.65;;;;;;;;;;8266434;28;20042;-87
2023/12/26 23:08:04;;;;;;;5.35;2.70;;;;;;;;;;8248355;28;20180;-87
2023/12/26 23:12:07;;;;;;;8.75;2.53;;;;;;;;;;8265357;28;20423;-86
2023/12/26 23:16:10;;;;;;;4.70;2.08;;;;;;;;;;8265486;28;20512;-86
2023/12/26 23:20:15;;;;;;;5.75;2.60;;;;;;;;;;8249242;28;20148;-86
2023/12/26 23:24:18;;;;;;;3.92;1.92;;;;;;;;;;8265386;28;20498;-89
2023/12/26 23:28:21;;;;;;;4.70;2.40;;;;;;;;;;8248409;28;20133;-87
2023/12/26 23:32:24;;;;;;;5.28;2.20;;;;;;;;;;8248283;28;20058;-87
2023/12/26 23:36:29;;;;;;;7.85;2.38;;;;;;;;;;8265251;28;20051;-88
2023/12/26 23:40:32;;;;;;;6.63;2.60;;;;;;;;;;8247585;28;20498;-88
2023/12/26 23:44:40;;;;;;;6.55;2.30;;;;;;;;;;8264570;28;20038;-88
2023/12/26 23:48:44;;;;;;;6.32;2.22;;;;;;;;;;8264734;28;20574;-88
2023/12/26 23:52:48;;;;;;;3.78;2.20;;;;;;;;;;8264925;28;20046;-88
2023/12/26 23:56:53;;;;;;;6.28;2.17;;;;;;;;;;8264961;28;20046;-87
